Time;durP1;ratioP1;P1;durP2;ratioP2;P2;SDS_P1;SDS_P2;PMS_P1;PMS_P2;Temp;Humidity;BMP_temperature;BMP_pressure;BME280_temperature;BME280_humidity;BME280_pressure;Samples;Min_cycle;Max_cycle;Signal;HPM_P1;HPM_P2
2024/01/11 00:01:47;;;;;;;20.42;7.95;;;-1.80;98.80;;;;;;5098516;28;20203;-64
2024/01/11 00:04:13;;;;;;;26.30;9.25;;;-1.80;98.80;;;;;;5098707;28;20048;-64
2024/01/11 00:06:43;;;;;;;23.10;8.90;;;-1.90;98.90;;;;;;5097602;28;20033;-64
2024/01/11 00:09:09;;;;;;;28.17;9.95;;;-1.80;99.10;;;;;;5098607;28;20039;-63
2024/01/11 00:11:34;;;;;;;27.95;8.95;;;-1.80;98.90;;;;;;5098559;28;20017;-65
2024/01/11 00:14:00;;;;;;;23.55;8.43;;;-1.80;99.00;;;;;;5098490;28;20029;-64
2024/01/11 00:16:26;;;;;;;26.60;9.73;;;-1.80;99.10;;;;;;5098560;28;20032;-64
2024/01/11 00:18:52;;;;;;;19.15;7.38;;;-1.80;98.90;;;;;;5098561;28;20012;-64
2024/01/11 00:21:17;;;;;;;17.52;7.65;;;-1.90;99.00;;;;;;5098523;28;20033;-64
2024/01/11 00:23:43;;;;;;;23.13;9.45;;;-1.90;99.20;;;;;;5098553;28;20032;-64
2024/01/11 00:26:08;;;;;;;20.38;8.75;;;-1.90;99.30;;;;;;5098518;28;20054;-63
2024/01/11 00:28:34;;;;;;;24.23;9.15;;;-1.90;99.50;;;;;;5098478;28;20029;-64
2024/01/11 00:31:00;;;;;;;25.27;8.90;;;-1.90;99.70;;;;;;5098568;28;20028;-64
2024/01/11 00:33:25;;;;;;;22.60;9.07;;;-1.90;99.50;;;;;;5098366;28;20024;-64
2024/01/11 00:35:51;;;;;;;23.05;8.45;;;-2.00;99.50;;;;;;5098577;28;20041;-64
2024/01/11 00:38:17;;;;;;;24.75;8.25;;;-2.00;99.70;;;;;;5097520;28;20025;-64
2024/01/11 00:40:43;;;;;;;20.17;8.68;;;-2.00;99.80;;;;;;5098423;28;20024;-64
2024/01/11 00:43:08;;;;;;;22.40;8.65;;;-2.10;99.90;;;;;;5098353;28;20086;-64
2024/01/11 00:45:35;;;;;;;18.00;8.23;;;-2.10;99.90;;;;;;5098305;28;20028;-64
2024/01/11 00:48:00;;;;;;;19.67;8.90;;;-2.10;99.90;;;;;;5098238;28;20037;-64
2024/01/11 00:50:26;;;;;;;22.60;9.00;;;-2.10;99.90;;;;;;5098387;28;20047;-64
2024/01/11 00:52:51;;;;;;;18.95;8.15;;;-2.10;99.90;;;;;;5098139;28;20391;-64
2024/01/11 00:55:17;;;;;;;18.80;9.15;;;-2.00;99.90;;;;;;5094041;28;20063;-64
2024/01/11 00:57:42;;;;;;;21.75;8.63;;;-2.00;99.90;;;;;;5095026;28;20037;-64
2024/01/11 01:00:13;;;;;;;20.88;8.70;;;-2.00;99.90;;;;;;5094901;28;20048;-64
2024/01/11 01:02:39;;;;;;;18.42;8.70;;;-2.10;99.90;;;;;;5094622;28;20027;-64
2024/01/11 01:05:06;;;;;;;24.40;9.77;;;-2.10;99.90;;;;;;5094902;28;20088;-64
2024/01/11 01:07:31;;;;;;;27.73;9.63;;;-2.10;99.90;;;;;;5094840;28;20092;-64
2024/01/11 01:09:57;;;;;;;23.83;9.18;;;-2.10;99.90;;;;;;5094823;28;20033;-64
2024/01/11 01:12:24;;;;;;;20.92;8.82;;;-2.20;99.90;;;;;;5094807;28;20024;-64
2024/01/11 01:14:51;;;;;;;22.20;9.82;;;-2.20;99.90;;;;;;5094762;28;20029;-64
2024/01/11 01:17:16;;;;;;;22.10;8.63;;;-2.30;99.90;;;;;;5094715;28;20029;-64
2024/01/11 01:19:42;;;;;;;19.85;8.35;;;-2.30;99.90;;;;;;5094640;28;20029;-63
2024/01/11 01:22:08;;;;;;;23.50;9.15;;;-2.30;99.90;;;;;;5094581;28;20025;-64
2024/01/11 01:24:33;;;;;;;22.15;9.65;;;-2.20;99.90;;;;;;5094636;28;20467;-64
2024/01/11 01:26:59;;;;;;;20.13;10.18;;;-2.20;99.90;;;;;;5094336;28;20029;-64
2024/01/11 01:29:24;;;;;;;24.52;9.60;;;-2.20;99.90;;;;;;5094544;28;20044;-64
2024/01/11 01:31:51;;;;;;;20.45;8.77;;;-2.20;99.90;;;;;;5094144;28;20062;-64
2024/01/11 01:34:16;;;;;;;23.00;8.98;;;-2.20;99.90;;;;;;5094479;28;20081;-64
2024/01/11 01:36:42;;;;;;;26.08;9.35;;;-2.20;99.90;;;;;;5094375;28;20040;-64
2024/01/11 01:39:08;;;;;;;21.10;9.40;;;-2.20;99.90;;;;;;5093307;28;20033;-64
2024/01/11 01:41:33;;;;;;;23.88;9.52;;;-2.30;99.90;;;;;;5094252;28;20033;-64
2024/01/11 01:43:59;;;;;;;23.25;7.97;;;-2.40;99.90;;;;;;5094137;28;20070;-63
2024/01/11 01:46:27;;;;;;;24.88;9.00;;;-2.40;99.90;;;;;;5093987;28;20053;-64
2024/01/11 01:48:54;;;;;;;20.38;8.52;;;-2.40;99.90;;;;;;5094084;28;20031;-64
2024/01/11 01:51:20;;;;;;;23.70;8.90;;;-2.50;99.90;;;;;;5094064;28;20051;-64
2024/01/11 01:53:46;;;;;;;21.55;9.25;;;-2.50;99.90;;;;;;5094037;28;20036;-64
2024/01/11 01:56:12;;;;;;;22.33;9.10;;;-2.50;99.90;;;;;;5093934;28;20054;-64
2024/01/11 01:58:38;;;;;;;25.70;9.00;;;-2.50;99.90;;;;;;5093960;28;20036;-64
2024/01/11 02:01:04;;;;;;;18.33;7.70;;;-2.50;99.90;;;;;;5092737;28;20055;-64
2024/01/11 02:03:30;;;;;;;23.63;8.65;;;-2.50;99.90;;;;;;5093628;28;20471;-64
2024/01/11 02:05:56;;;;;;;17.88;8.52;;;-2.50;99.90;;;;;;5093539;28;20047;-63
2024/01/11 02:08:25;;;;;;;20.42;8.02;;;-2.50;99.90;;;;;;5093744;28;20029;-63
2024/01/11 02:10:52;;;;;;;20.95;8.77;;;-2.50;99.90;;;;;;5093561;28;20051;-64
2024/01/11 02:13:18;;;;;;;19.08;7.95;;;-2.50;99.90;;;;;;5093576;28;20060;-64
2024/01/11 02:15:45;;;;;;;22.25;8.15;;;-2.50;99.90;;;;;;5093486;28;20029;-63
2024/01/11 02:18:11;;;;;;;21.73;7.68;;;-2.60;99.90;;;;;;5093435;28;20084;-64
2024/01/11 02:20:36;;;;;;;16.00;8.85;;;-2.60;99.90;;;;;;5093302;28;20043;-64
2024/01/11 02:23:07;;;;;;;18.08;7.75;;;-2.70;99.90;;;;;;5093374;28;20036;-64
2024/01/11 02:25:32;;;;;;;24.20;9.25;;;-2.70;99.90;;;;;;5093166;28;20035;-64
2024/01/11 02:27:58;;;;;;;21.02;8.30;;;-2.80;99.90;;;;;;5093361;28;20031;-63
2024/01/11 02:30:23;;;;;;;18.98;9.27;;;-2.80;99.90;;;;;;5093305;28;20050;-64
2024/01/11 02:32:50;;;;;;;25.25;8.45;;;-2.90;99.90;;;;;;5092992;28;20040;-63
2024/01/11 02:35:16;;;;;;;22.48;8.82;;;-2.90;99.90;;;;;;5093233;28;20055;-64
2024/01/11 02:37:43;;;;;;;22.60;9.15;;;-2.90;99.90;;;;;;5093073;28;20028;-64
2024/01/11 02:40:09;;;;;;;16.15;7.75;;;-2.90;99.90;;;;;;5092967;28;20040;-64
2024/01/11 02:42:35;;;;;;;22.30;9.93;;;-2.90;99.90;;;;;;5093028;28;20017;-63
2024/01/11 02:45:03;;;;;;;24.02;10.18;;;-2.90;99.90;;;;;;5092944;28;20044;-64
2024/01/11 02:47:29;;;;;;;20.25;9.23;;;-2.90;99.90;;;;;;5092755;28;20041;-64
2024/01/11 02:49:55;;;;;;;19.92;8.05;;;-2.90;99.90;;;;;;5092899;28;20063;-64
2024/01/11 02:52:22;;;;;;;24.10;8.77;;;-2.90;99.90;;;;;;5092832;28;20021;-64
2024/01/11 02:54:48;;;;;;;17.52;8.07;;;-2.90;99.90;;;;;;5092834;28;20033;-64
2024/01/11 02:57:14;;;;;;;24.55;8.30;;;-2.90;99.90;;;;;;5092770;28;20029;-64
2024/01/11 02:59:40;;;;;;;19.23;8.07;;;-2.90;99.90;;;;;;5092620;28;20025;-64
2024/01/11 03:02:06;;;;;;;24.17;9.90;;;-2.90;99.90;;;;;;5092434;28;20025;-64
2024/01/11 03:04:31;;;;;;;18.55;9.15;;;-2.90;99.90;;;;;;5092572;28;20479;-63
2024/01/11 03:06:57;;;;;;;22.67;9.27;;;-2.90;99.90;;;;;;5092296;28;20037;-64
2024/01/11 03:09:23;;;;;;;21.88;9.68;;;-2.90;99.90;;;;;;5092687;28;20057;-64
2024/01/11 03:11:48;;;;;;;21.63;7.90;;;-2.90;99.90;;;;;;5092509;28;20032;-64
2024/01/11 03:14:14;;;;;;;20.95;9.45;;;-2.90;99.90;;;;;;5092514;28;20052;-64
2024/01/11 03:16:39;;;;;;;19.98;8.55;;;-2.90;99.90;;;;;;5091968;28;20033;-64
2024/01/11 03:19:06;;;;;;;23.05;7.57;;;-2.90;99.90;;;;;;5092476;28;20043;-64
2024/01/11 03:21:31;;;;;;;15.70;6.68;;;-2.90;99.90;;;;;;5092494;28;20025;-64
2024/01/11 03:23:57;;;;;;;21.08;8.60;;;-2.90;99.90;;;;;;5092385;28;20062;-63
2024/01/11 03:26:23;;;;;;;18.85;7.75;;;-2.90;99.90;;;;;;5091291;28;20029;-64
2024/01/11 03:28:49;;;;;;;22.05;7.60;;;-2.90;99.90;;;;;;5092319;28;20020;-64
2024/01/11 03:31:14;;;;;;;18.95;8.88;;;-2.90;99.90;;;;;;5092304;28;20024;-64
2024/01/11 03:33:40;;;;;;;15.30;7.18;;;-2.90;99.90;;;;;;5092098;28;20025;-64
2024/01/11 03:36:09;;;;;;;19.50;7.95;;;-2.90;99.90;;;;;;5092356;28;20032;-64
2024/01/11 03:38:35;;;;;;;13.82;7.38;;;-2.90;99.90;;;;;;5092224;28;20047;-64
2024/01/11 03:41:01;;;;;;;18.60;7.82;;;-3.00;99.90;;;;;;5092245;28;20048;-63
2024/01/11 03:43:27;;;;;;;23.05;7.95;;;-3.00;99.90;;;;;;5092234;28;20058;-63
2024/01/11 03:45:53;;;;;;;18.60;6.63;;;-3.00;99.90;;;;;;5091950;28;20060;-64
2024/01/11 03:48:19;;;;;;;21.92;7.53;;;-3.10;99.90;;;;;;5092032;28;20032;-64
2024/01/11 03:50:44;;;;;;;14.48;6.93;;;-3.10;99.90;;;;;;5091898;28;20088;-63
2024/01/11 03:53:10;;;;;;;20.90;8.13;;;-3.10;99.90;;;;;;5091960;28;20048;-64
2024/01/11 03:55:36;;;;;;;27.63;8.10;;;-3.20;99.90;;;;;;5092050;28;20044;-64
2024/01/11 03:58:01;;;;;;;22.67;7.80;;;-3.20;99.90;;;;;;5091862;28;20032;-64
2024/01/11 04:00:27;;;;;;;17.23;7.32;;;-3.10;99.90;;;;;;5091936;28;20037;-64
2024/01/11 04:02:53;;;;;;;18.27;7.70;;;-3.20;99.90;;;;;;5091723;28;20093;-64
2024/01/11 04:05:18;;;;;;;16.77;7.22;;;-3.20;99.90;;;;;;5091882;28;20021;-63
2024/01/11 04:07:44;;;;;;;23.95;8.30;;;-3.20;99.90;;;;;;5091839;28;20040;-64
2024/01/11 04:10:10;;;;;;;28.55;8.55;;;-3.20;99.90;;;;;;5091851;28;20025;-63
2024/01/11 04:12:36;;;;;;;23.42;7.97;;;-3.20;99.90;;;;;;5091936;28;20642;-64
2024/01/11 04:15:02;;;;;;;18.40;7.00;;;-3.10;99.90;;;;;;5091939;28;20025;-63
2024/01/11 04:17:28;;;;;;;18.30;7.32;;;-3.20;99.90;;;;;;5091809;28;20047;-64
2024/01/11 04:19:53;;;;;;;15.48;6.88;;;-3.20;99.90;;;;;;5090759;28;20029;-64
2024/01/11 04:22:19;;;;;;;16.83;6.78;;;-3.20;99.90;;;;;;5091773;28;20071;-64
2024/01/11 04:24:44;;;;;;;20.23;7.38;;;-3.20;99.90;;;;;;5091801;28;20017;-64
2024/01/11 04:27:10;;;;;;;12.30;6.55;;;-3.20;99.90;;;;;;5091650;28;20545;-64
2024/01/11 04:29:36;;;;;;;13.95;6.43;;;-3.10;99.90;;;;;;5093432;28;20024;-64
2024/01/11 04:32:02;;;;;;;21.92;6.97;;;-3.20;99.90;;;;;;5095248;28;20070;-64
2024/01/11 04:34:27;;;;;;;16.00;6.95;;;-3.20;99.90;;;;;;5095366;28;20033;-64
2024/01/11 04:36:53;;;;;;;22.88;8.48;;;-3.20;99.90;;;;;;5095416;28;20055;-64
2024/01/11 04:39:18;;;;;;;14.88;6.40;;;-3.20;99.90;;;;;;5095351;28;20058;-64
2024/01/11 04:41:44;;;;;;;19.27;7.65;;;-3.20;99.90;;;;;;5095347;28;20038;-64
2024/01/11 04:44:10;;;;;;;21.30;7.65;;;-3.30;99.90;;;;;;5095289;28;20052;-64
2024/01/11 04:46:36;;;;;;;15.38;6.32;;;-3.30;99.90;;;;;;5095040;28;20051;-64
2024/01/11 04:49:01;;;;;;;14.38;6.82;;;-3.30;99.90;;;;;;5095211;28;20033;-64
2024/01/11 04:51:27;;;;;;;12.13;6.57;;;-3.30;99.90;;;;;;5095164;28;20094;-64
2024/01/11 04:53:52;;;;;;;18.45;6.57;;;-3.30;99.90;;;;;;5095159;28;20024;-64
2024/01/11 04:56:18;;;;;;;16.27;7.20;;;-3.30;99.90;;;;;;5095110;28;20359;-64
2024/01/11 04:58:45;;;;;;;16.98;7.07;;;-3.30;99.90;;;;;;5095009;28;20057;-64
2024/01/11 05:01:15;;;;;;;16.58;5.88;;;-3.30;99.90;;;;;;5095038;28;20033;-64
2024/01/11 05:03:42;;;;;;;18.02;6.30;;;-3.30;99.90;;;;;;5093642;28;20039;-64
2024/01/11 05:06:07;;;;;;;17.05;7.50;;;-3.40;99.90;;;;;;5094846;28;20029;-64
2024/01/11 05:08:33;;;;;;;13.82;5.97;;;-3.40;99.90;;;;;;5094864;28;20082;-64
2024/01/11 05:10:59;;;;;;;22.13;7.45;;;-3.40;99.90;;;;;;5094858;28;20032;-64
2024/01/11 05:13:24;;;;;;;12.48;6.07;;;-3.40;99.90;;;;;;5094853;28;20020;-64
2024/01/11 05:15:50;;;;;;;17.60;6.15;;;-3.40;99.90;;;;;;5094775;28;20028;-64
2024/01/11 05:18:15;;;;;;;14.98;7.35;;;-3.30;99.90;;;;;;5094613;28;20033;-64
2024/01/11 05:20:41;;;;;;;18.95;8.32;;;-3.30;99.90;;;;;;5094609;28;20035;-64
2024/01/11 05:23:07;;;;;;;16.60;6.55;;;-3.30;99.90;;;;;;5094619;28;20034;-64
2024/01/11 05:25:35;;;;;;;14.48;6.35;;;-3.30;99.90;;;;;;5094499;28;20058;-64
2024/01/11 05:28:02;;;;;;;16.77;6.50;;;-3.30;99.90;;;;;;5094613;28;20025;-64
2024/01/11 05:30:27;;;;;;;16.50;6.50;;;-3.30;99.90;;;;;;5094524;28;20024;-64
2024/01/11 05:32:53;;;;;;;17.27;7.07;;;-3.30;99.90;;;;;;5093170;28;20081;-64
2024/01/11 05:35:19;;;;;;;16.10;6.63;;;-3.30;99.90;;;;;;5094424;28;20052;-64
2024/01/11 05:37:45;;;;;;;15.98;7.05;;;-3.30;99.90;;;;;;5094288;28;20055;-64
2024/01/11 05:40:11;;;;;;;16.27;6.70;;;-3.40;99.90;;;;;;5093768;28;20036;-64
2024/01/11 05:42:37;;;;;;;18.70;6.57;;;-3.40;99.90;;;;;;5094183;28;20156;-64
2024/01/11 05:45:04;;;;;;;19.85;6.50;;;-3.40;99.90;;;;;;5094101;28;20021;-64
2024/01/11 05:47:31;;;;;;;14.48;6.75;;;-3.40;99.90;;;;;;5093848;28;20053;-64
2024/01/11 05:49:57;;;;;;;17.08;6.45;;;-3.40;99.90;;;;;;5094096;28;20032;-64
2024/01/11 05:52:22;;;;;;;14.32;6.80;;;-3.50;99.90;;;;;;5092908;28;20332;-64
2024/01/11 05:54:48;;;;;;;17.00;7.20;;;-3.50;99.90;;;;;;5093972;28;20036;-64
2024/01/11 05:57:14;;;;;;;18.48;7.10;;;-3.50;99.90;;;;;;5093978;28;20051;-64
2024/01/11 05:59:46;;;;;;;20.30;6.53;;;-3.50;99.90;;;;;;5093872;28;20059;-64
2024/01/11 06:02:13;;;;;;;11.38;6.22;;;-3.50;99.90;;;;;;5093618;28;20028;-64
2024/01/11 06:04:39;;;;;;;16.92;6.72;;;-3.50;99.90;;;;;;5093870;28;20056;-65
2024/01/11 06:07:05;;;;;;;14.23;6.93;;;-3.50;99.90;;;;;;5093709;28;20096;-64
2024/01/11 06:09:30;;;;;;;16.10;6.75;;;-3.50;99.90;;;;;;5093779;28;20017;-64
2024/01/11 06:11:56;;;;;;;17.02;6.38;;;-3.50;99.90;;;;;;5093693;28;20113;-64
2024/01/11 06:14:21;;;;;;;18.88;6.72;;;-3.50;99.90;;;;;;5093516;28;20028;-64
2024/01/11 06:16:47;;;;;;;13.02;6.78;;;-3.50;99.90;;;;;;5093464;28;20036;-64
2024/01/11 06:19:13;;;;;;;17.20;6.72;;;-3.50;99.90;;;;;;5093509;28;20056;-64
2024/01/11 06:21:38;;;;;;;13.88;6.22;;;-3.50;99.90;;;;;;5093342;28;20112;-64
2024/01/11 06:24:04;;;;;;;17.05;7.45;;;-3.60;99.90;;;;;;5093350;28;20039;-64
2024/01/11 06:26:30;;;;;;;13.00;6.47;;;-3.70;99.90;;;;;;5093242;28;20039;-64
2024/01/11 06:28:55;;;;;;;14.40;6.90;;;-3.80;99.90;;;;;;5093190;28;20039;-64
2024/01/11 06:31:21;;;;;;;14.45;6.45;;;-3.90;99.90;;;;;;5093164;28;20017;-64
2024/01/11 06:33:47;;;;;;;15.07;7.10;;;-4.00;99.90;;;;;;5091892;28;20032;-64
2024/01/11 06:36:12;;;;;;;17.38;6.25;;;-4.00;99.90;;;;;;5093108;28;20043;-64
2024/01/11 06:38:38;;;;;;;19.13;7.00;;;-4.10;99.90;;;;;;5092929;28;20092;-64
2024/01/11 06:41:03;;;;;;;12.73;6.28;;;-4.10;99.90;;;;;;5092940;28;20041;-64
2024/01/11 06:43:29;;;;;;;21.15;6.38;;;-4.20;99.90;;;;;;5092988;28;20056;-64
2024/01/11 06:45:55;;;;;;;19.33;6.43;;;-4.20;99.90;;;;;;5092705;28;20040;-64
2024/01/11 06:48:20;;;;;;;13.93;6.57;;;-4.20;99.90;;;;;;5092866;28;20060;-64
2024/01/11 06:50:46;;;;;;;17.27;7.63;;;-4.20;99.90;;;;;;5092829;28;20025;-64
2024/01/11 06:53:11;;;;;;;20.40;7.10;;;-4.20;99.90;;;;;;5092133;28;20028;-64
2024/01/11 06:55:37;;;;;;;19.13;8.00;;;-4.20;99.90;;;;;;5092851;28;20039;-64
2024/01/11 06:58:03;;;;;;;20.55;7.80;;;-4.10;99.90;;;;;;5092718;28;20032;-64
2024/01/11 07:00:29;;;;;;;16.52;7.40;;;-4.10;99.90;;;;;;5092651;28;20024;-64
2024/01/11 07:02:55;;;;;;;16.25;6.22;;;-4.10;99.90;;;;;;5092450;28;20483;-64
2024/01/11 07:05:20;;;;;;;12.80;7.05;;;-4.10;99.90;;;;;;5092589;28;20442;-64
2024/01/11 07:07:46;;;;;;;16.13;7.50;;;-4.10;99.90;;;;;;5092555;28;20013;-64
2024/01/11 07:10:12;;;;;;;16.52;6.60;;;-4.10;99.90;;;;;;5092598;28;20491;-64
2024/01/11 07:12:40;;;;;;;18.27;7.97;;;-4.10;99.90;;;;;;5092547;28;20024;-64
2024/01/11 07:15:07;;;;;;;13.98;6.65;;;-4.00;99.90;;;;;;5092404;28;20032;-64
2024/01/11 07:17:33;;;;;;;16.33;6.97;;;-4.00;99.90;;;;;;5092435;28;20475;-64
2024/01/11 07:19:59;;;;;;;17.48;7.72;;;-3.90;99.90;;;;;;5092437;28;20047;-64
2024/01/11 07:22:24;;;;;;;17.35;7.88;;;-3.90;99.90;;;;;;5092446;28;20029;-64
2024/01/11 07:24:50;;;;;;;17.58;6.68;;;-3.90;99.90;;;;;;5092450;28;20031;-64
2024/01/11 07:27:16;;;;;;;18.77;6.28;;;-3.90;99.90;;;;;;5092325;28;20029;-64
2024/01/11 07:29:41;;;;;;;23.40;7.68;;;-3.90;99.90;;;;;;5091291;28;20032;-64
2024/01/11 07:32:07;;;;;;;14.93;6.78;;;-3.90;99.90;;;;;;5092253;28;20056;-64
2024/01/11 07:34:33;;;;;;;13.63;6.88;;;-3.90;99.90;;;;;;5092390;28;20029;-64
2024/01/11 07:36:59;;;;;;;18.00;7.72;;;-3.90;99.90;;;;;;5092158;28;20055;-65
2024/01/11 07:39:24;;;;;;;11.00;4.78;;;-3.90;99.90;;;;;;5092321;28;20036;-64
2024/01/11 07:41:50;;;;;;;20.60;7.88;;;-3.90;99.90;;;;;;5092291;28;20080;-64
2024/01/11 07:44:15;;;;;;;17.52;7.50;;;-3.90;99.90;;;;;;5092152;28;20040;-64
2024/01/11 07:46:43;;;;;;;18.52;6.97;;;-3.90;99.90;;;;;;5092039;28;20079;-64
2024/01/11 07:49:09;;;;;;;17.98;7.05;;;-3.90;99.90;;;;;;5092173;28;20059;-64
2024/01/11 07:51:35;;;;;;;14.25;7.00;;;-3.90;99.90;;;;;;5092179;28;20054;-64
2024/01/11 07:54:00;;;;;;;29.92;9.45;;;-3.90;99.90;;;;;;5092148;28;20045;-64
2024/01/11 07:56:26;;;;;;;33.10;13.23;;;-3.90;99.90;;;;;;5092170;28;20089;-64
2024/01/11 07:58:51;;;;;;;26.23;8.27;;;-3.80;99.90;;;;;;5092022;28;20033;-64
2024/01/11 08:01:17;;;;;;;15.32;7.03;;;-3.80;99.90;;;;;;5092041;28;20044;-64
2024/01/11 08:03:47;;;;;;;17.08;7.93;;;-3.90;99.90;;;;;;5093753;28;20049;-64
2024/01/11 08:06:13;;;;;;;21.13;8.18;;;-3.90;99.90;;;;;;5095953;28;20029;-64
2024/01/11 08:08:39;;;;;;;23.85;8.75;;;-3.90;99.90;;;;;;5095981;28;20033;-64
2024/01/11 08:11:06;;;;;;;25.70;9.93;;;-3.90;99.90;;;;;;5095958;28;20082;-64
2024/01/11 08:13:32;;;;;;;31.48;11.45;;;-3.90;99.90;;;;;;5095967;28;20028;-64
2024/01/11 08:15:57;;;;;;;29.67;12.57;;;-3.80;99.90;;;;;;5095962;28;20096;-65
2024/01/11 08:18:23;;;;;;;26.23;9.60;;;-3.80;99.90;;;;;;5095908;28;20039;-64
2024/01/11 08:20:49;;;;;;;24.70;8.38;;;-3.80;99.90;;;;;;5095851;28;20021;-64
2024/01/11 08:23:16;;;;;;;35.38;7.03;;;-3.70;99.90;;;;;;5095805;28;20477;-64
2024/01/11 08:25:41;;;;;;;15.73;7.53;;;-3.70;99.90;;;;;;5095593;28;20025;-65
2024/01/11 08:28:07;;;;;;;18.70;8.73;;;-3.60;99.90;;;;;;5095645;28;20080;-64
2024/01/11 08:30:33;;;;;;;12.95;6.60;;;-3.50;99.90;;;;;;5095574;28;20021;-64
2024/01/11 08:32:58;;;;;;;22.55;9.38;;;-3.50;99.90;;;;;;5095362;28;20208;-64
2024/01/11 08:35:24;;;;;;;16.23;8.05;;;-3.40;99.90;;;;;;5095572;28;20035;-64
2024/01/11 08:37:50;;;;;;;18.70;7.07;;;-3.40;99.90;;;;;;5095323;28;20056;-65
2024/01/11 08:40:15;;;;;;;14.05;8.35;;;-3.30;99.90;;;;;;5095437;28;20028;-65
2024/01/11 08:42:42;;;;;;;18.23;7.13;;;-3.20;99.90;;;;;;5094358;28;20036;-65
2024/01/11 08:45:08;;;;;;;17.40;7.47;;;-3.20;99.90;;;;;;5095255;28;20021;-64
2024/01/11 08:47:35;;;;;;;19.08;7.32;;;-3.10;99.90;;;;;;5095156;28;20108;-64
2024/01/11 08:50:01;;;;;;;17.17;7.60;;;-3.10;99.90;;;;;;5095335;28;20082;-65
2024/01/11 08:52:27;;;;;;;17.85;7.90;;;-3.00;99.90;;;;;;5095313;28;20385;-64
2024/01/11 08:54:52;;;;;;;22.65;7.35;;;-3.00;99.90;;;;;;5095019;28;20021;-64
2024/01/11 08:57:18;;;;;;;17.88;6.68;;;-2.90;99.90;;;;;;5095018;28;20429;-64
2024/01/11 08:59:44;;;;;;;20.13;8.80;;;-2.90;99.90;;;;;;5095114;28;20051;-64
2024/01/11 09:02:10;;;;;;;16.48;7.95;;;-2.80;99.90;;;;;;5094782;28;20043;-64
2024/01/11 09:04:36;;;;;;;36.63;8.48;;;-2.80;99.90;;;;;;5094888;28;20025;-65
2024/01/11 09:07:02;;;;;;;20.77;8.70;;;-2.70;99.90;;;;;;5094755;28;20092;-64
2024/01/11 09:09:27;;;;;;;19.58;8.50;;;-2.60;99.90;;;;;;5094835;28;20044;-64
2024/01/11 09:11:53;;;;;;;20.88;8.20;;;-2.60;99.90;;;;;;5094779;28;20039;-65
2024/01/11 09:14:19;;;;;;;18.50;8.25;;;-2.50;99.90;;;;;;5094248;28;20066;-65
2024/01/11 09:16:45;;;;;;;20.98;8.52;;;-2.40;99.90;;;;;;5094427;28;20088;-65
2024/01/11 09:19:11;;;;;;;18.23;8.43;;;-2.30;99.90;;;;;;5094664;28;20032;-64
2024/01/11 09:21:37;;;;;;;21.10;8.20;;;-2.20;99.90;;;;;;5094571;28;20025;-64
2024/01/11 09:24:03;;;;;;;20.98;8.88;;;-2.20;99.90;;;;;;5094514;28;20043;-65
2024/01/11 09:26:28;;;;;;;21.83;8.68;;;-2.10;99.90;;;;;;5094467;28;20035;-64
2024/01/11 09:28:54;;;;;;;24.15;10.27;;;-2.10;99.90;;;;;;5094549;28;20036;-64
2024/01/11 09:31:19;;;;;;;23.73;10.05;;;-2.00;99.90;;;;;;5094501;28;20495;-64
2024/01/11 09:33:45;;;;;;;23.67;9.07;;;-1.90;99.90;;;;;;5094275;28;20047;-64
2024/01/11 09:36:12;;;;;;;24.08;9.38;;;-1.80;99.90;;;;;;5093380;28;20033;-64
2024/01/11 09:38:38;;;;;;;26.98;10.10;;;-1.70;99.90;;;;;;5094257;28;20099;-64
2024/01/11 09:41:09;;;;;;;26.77;10.23;;;-1.70;99.90;;;;;;5093272;28;20037;-65
2024/01/11 09:43:35;;;;;;;26.65;8.35;;;-1.60;99.90;;;;;;5094229;28;20052;-64
2024/01/11 09:46:07;;;;;;;28.60;10.13;;;-1.50;99.90;;;;;;5093823;28;20407;-65
2024/01/11 09:48:38;;;;;;;27.83;11.07;;;-1.40;99.90;;;;;;5094156;28;20025;-64
2024/01/11 09:51:11;;;;;;;22.15;10.25;;;-1.30;99.90;;;;;;5094080;28;20035;-65
2024/01/11 09:53:38;;;;;;;27.70;10.23;;;-1.20;99.90;;;;;;5094073;28;20028;-64
2024/01/11 09:56:07;;;;;;;19.88;9.88;;;-1.20;99.90;;;;;;5093967;28;20032;-64
2024/01/11 09:58:36;;;;;;;21.63;9.98;;;-1.10;99.90;;;;;;5093891;28;20029;-64
2024/01/11 10:01:02;;;;;;;20.02;9.50;;;-1.00;99.90;;;;;;5093884;28;20025;-65
2024/01/11 10:03:28;;;;;;;28.15;10.70;;;-0.90;99.90;;;;;;5093653;28;20112;-64
2024/01/11 10:05:58;;;;;;;21.85;9.85;;;-0.80;99.90;;;;;;5093668;28;20025;-64
2024/01/11 10:08:24;;;;;;;26.60;9.95;;;-0.80;99.90;;;;;;5093762;28;20112;-65
2024/01/11 10:10:50;;;;;;;19.27;9.80;;;-0.70;99.90;;;;;;5093747;28;20037;-65
2024/01/11 10:13:16;;;;;;;26.77;10.85;;;-0.60;99.90;;;;;;5093638;28;20055;-64
2024/01/11 10:15:45;;;;;;;32.45;11.95;;;-0.50;99.90;;;;;;5093577;28;20055;-65
2024/01/11 10:18:12;;;;;;;25.40;9.95;;;-0.50;99.90;;;;;;5093484;28;20067;-64
2024/01/11 10:20:37;;;;;;;27.92;10.30;;;-0.40;99.90;;;;;;5093452;28;20037;-65
2024/01/11 10:23:03;;;;;;;26.50;11.68;;;-0.30;99.90;;;;;;5093326;28;20039;-65
2024/01/11 10:25:29;;;;;;;22.88;10.68;;;-0.20;99.90;;;;;;5093276;28;20029;-65
2024/01/11 10:27:55;;;;;;;27.10;9.75;;;-0.20;99.90;;;;;;5093221;28;20035;-65
2024/01/11 10:30:22;;;;;;;28.08;9.93;;;-0.10;99.90;;;;;;5093332;28;20027;-65
2024/01/11 10:32:49;;;;;;;29.65;11.38;;;0.00;99.90;;;;;;5092897;28;20021;-64
2024/01/11 10:35:17;;;;;;;26.60;10.55;;;0.00;99.90;;;;;;5093142;28;20013;-65
2024/01/11 10:37:43;;;;;;;27.02;10.68;;;0.10;99.90;;;;;;5093031;28;20031;-64
2024/01/11 10:40:12;;;;;;;23.40;10.60;;;0.20;99.90;;;;;;5092020;28;20028;-65
2024/01/11 10:42:45;;;;;;;27.42;10.88;;;0.20;99.90;;;;;;5093008;28;20051;-65
2024/01/11 10:45:15;;;;;;;25.73;11.82;;;0.30;99.90;;;;;;5092904;28;20013;-65
2024/01/11 10:47:50;;;;;;;14.60;7.00;;;0.40;99.90;;;;;;5092771;28;20112;-65
2024/01/11 10:50:17;;;;;;;25.38;9.88;;;0.40;99.90;;;;;;5092884;28;20051;-66
2024/01/11 10:52:54;;;;;;;32.10;10.93;;;0.40;99.90;;;;;;5092808;28;20024;-65
2024/01/11 10:55:21;;;;;;;31.77;11.23;;;0.40;99.90;;;;;;5092840;28;20024;-65
2024/01/11 10:57:49;;;;;;;25.05;11.25;;;0.50;99.90;;;;;;5092675;28;20111;-65
2024/01/11 11:00:16;;;;;;;30.83;11.75;;;0.50;99.90;;;;;;5092795;28;20088;-65
2024/01/11 11:02:43;;;;;;;30.88;11.63;;;0.60;99.90;;;;;;5092503;28;20149;-64
2024/01/11 11:05:10;;;;;;;17.83;8.13;;;0.60;99.90;;;;;;5092580;28;20054;-64
2024/01/11 11:07:37;;;;;;;25.40;10.10;;;0.70;99.90;;;;;;5092659;28;20032;-65
2024/01/11 11:10:05;;;;;;;30.40;10.68;;;0.70;99.90;;;;;;5092562;28;20104;-64
2024/01/11 11:12:34;;;;;;;32.25;10.57;;;0.70;99.90;;;;;;5092487;28;20047;-65
2024/01/11 11:15:02;;;;;;;28.02;11.55;;;0.70;99.90;;;;;;5092524;28;20017;-65
2024/01/11 11:17:29;;;;;;;25.83;10.50;;;0.70;99.90;;;;;;5092462;28;20046;-65
2024/01/11 11:19:54;;;;;;;28.25;10.65;;;0.80;99.90;;;;;;5092402;28;20050;-65
2024/01/11 11:22:20;;;;;;;28.90;11.63;;;0.80;99.90;;;;;;5092453;28;20024;-64
2024/01/11 11:24:46;;;;;;;29.67;12.13;;;0.80;99.90;;;;;;5092418;28;20043;-65
2024/01/11 11:27:15;;;;;;;27.83;11.40;;;0.90;99.90;;;;;;5092194;28;20031;-65
2024/01/11 11:29:41;;;;;;;25.63;10.00;;;0.90;99.90;;;;;;5092364;28;20021;-65
2024/01/11 11:32:10;;;;;;;25.10;11.45;;;1.00;99.90;;;;;;5092180;28;20024;-65
2024/01/11 11:34:44;;;;;;;26.75;11.18;;;1.00;99.90;;;;;;5092372;28;20027;-65
2024/01/11 11:37:10;;;;;;;30.63;11.20;;;1.10;99.90;;;;;;5092146;28;20059;-65
2024/01/11 11:39:36;;;;;;;28.27;10.68;;;1.20;99.90;;;;;;5091798;28;20020;-65
2024/01/11 11:42:02;;;;;;;33.40;12.13;;;1.30;99.90;;;;;;5092156;28;20084;-65
2024/01/11 11:44:29;;;;;;;25.17;10.98;;;1.30;99.90;;;;;;5092126;28;20048;-65
2024/01/11 11:46:54;;;;;;;30.83;11.93;;;1.40;99.90;;;;;;5091868;28;20079;-65
2024/01/11 11:49:20;;;;;;;28.02;11.98;;;1.50;99.90;;;;;;5092148;28;20032;-65
2024/01/11 11:51:45;;;;;;;28.88;11.93;;;1.50;99.50;;;;;;5092107;28;20016;-65
2024/01/11 11:54:14;;;;;;;32.10;11.48;;;1.50;99.40;;;;;;5091960;28;20463;-65
2024/01/11 11:56:41;;;;;;;24.05;10.85;;;1.50;99.90;;;;;;5092004;28;20084;-64
2024/01/11 11:59:08;;;;;;;30.30;11.55;;;1.50;99.90;;;;;;5092060;28;20085;-65
2024/01/11 12:01:35;;;;;;;27.98;11.35;;;1.60;99.30;;;;;;5092168;28;20033;-64
2024/01/11 12:04:02;;;;;;;30.25;12.27;;;1.60;98.90;;;;;;5092094;28;20028;-64
2024/01/11 12:06:29;;;;;;;29.25;11.82;;;1.50;98.10;;;;;;5091989;28;20025;-64
2024/01/11 12:08:55;;;;;;;30.02;12.20;;;1.50;98.50;;;;;;5091883;28;20025;-64
2024/01/11 12:11:21;;;;;;;28.40;11.18;;;1.60;98.50;;;;;;5091973;28;20019;-65
2024/01/11 12:13:48;;;;;;;27.92;12.40;;;1.60;98.40;;;;;;5091946;28;20091;-65
2024/01/11 12:16:14;;;;;;;27.77;11.40;;;1.70;98.90;;;;;;5091925;28;20029;-65
2024/01/11 12:18:41;;;;;;;27.92;10.75;;;1.70;99.10;;;;;;5091907;28;20078;-65
2024/01/11 12:21:07;;;;;;;28.05;10.88;;;1.80;99.20;;;;;;5091820;28;20021;-64
2024/01/11 12:23:34;;;;;;;30.23;11.27;;;1.90;99.20;;;;;;5091784;28;20025;-65
2024/01/11 12:26:03;;;;;;;28.50;11.52;;;1.90;99.40;;;;;;5091688;28;20395;-64
2024/01/11 12:28:28;;;;;;;29.85;11.73;;;1.90;99.60;;;;;;5091767;28;20497;-66
2024/01/11 12:30:54;;;;;;;23.00;9.38;;;1.90;99.90;;;;;;5091852;28;20017;-64